Time;durP1;ratioP1;P1;durP2;ratioP2;P2;SDS_P1;SDS_P2;PMS_P1;PMS_P2;Temp;Humidity;BMP_temperature;BMP_pressure;BME280_temperature;BME280_humidity;BME280_pressure;Samples;Min_cycle;Max_cycle;Signal;HPM_P1;HPM_P2
2023/05/15 00:00:50;;;;;;;28.97;15.27;;;11.00;99.90;;;;;;5000323;28;20019;-70
2023/05/15 00:03:17;;;;;;;28.95;14.65;;;11.00;99.90;;;;;;4999343;28;20658;-70
2023/05/15 00:05:42;;;;;;;30.85;14.82;;;11.00;99.90;;;;;;4994721;28;20133;-70
2023/05/15 00:08:08;;;;;;;30.13;14.87;;;11.00;99.90;;;;;;4994104;28;20469;-70
2023/05/15 00:10:34;;;;;;;32.10;15.30;;;11.00;99.90;;;;;;4996483;28;20032;-70
2023/05/15 00:13:00;;;;;;;27.00;15.33;;;11.00;99.90;;;;;;4991718;28;20034;-70
2023/05/15 00:15:26;;;;;;;28.20;14.97;;;11.00;99.90;;;;;;4992465;28;20050;-70
2023/05/15 00:17:52;;;;;;;34.17;13.30;;;11.00;99.90;;;;;;4991963;28;20042;-70
2023/05/15 00:20:17;;;;;;;30.23;15.23;;;11.10;99.90;;;;;;4993046;28;20348;-70
2023/05/15 00:22:43;;;;;;;31.47;14.23;;;11.00;99.90;;;;;;4991939;28;20041;-70
2023/05/15 00:25:09;;;;;;;27.33;15.40;;;11.00;99.90;;;;;;4989723;28;20497;-78
2023/05/15 00:27:35;;;;;;;26.20;14.20;;;10.90;99.90;;;;;;4995065;28;20022;-70
2023/05/15 00:30:01;;;;;;;32.03;16.43;;;10.90;99.90;;;;;;4995797;28;20081;-70
2023/05/15 00:32:26;;;;;;;33.07;16.77;;;10.90;99.90;;;;;;4993732;28;20038;-70
2023/05/15 00:34:52;;;;;;;34.27;16.13;;;10.90;99.90;;;;;;4993972;28;20341;-70
2023/05/15 00:37:18;;;;;;;34.57;15.13;;;10.90;99.90;;;;;;4993368;28;20034;-70
2023/05/15 00:39:44;;;;;;;34.67;16.17;;;10.90;99.90;;;;;;4993461;28;20026;-70
2023/05/15 00:42:10;;;;;;;30.87;15.27;;;10.90;99.90;;;;;;4990947;28;20239;-77
2023/05/15 00:44:39;;;;;;;38.45;17.23;;;10.90;99.90;;;;;;4988349;28;20027;-70
2023/05/15 00:47:06;;;;;;;33.17;15.75;;;10.90;99.90;;;;;;4993494;28;20034;-70
2023/05/15 00:49:34;;;;;;;35.00;15.95;;;10.90;99.90;;;;;;4994167;28;20107;-70
2023/05/15 00:52:04;;;;;;;41.28;17.05;;;11.00;99.90;;;;;;4994580;28;20421;-71
2023/05/15 00:54:30;;;;;;;31.35;15.73;;;11.00;99.90;;;;;;4993656;28;20330;-71
2023/05/15 00:56:58;;;;;;;29.37;15.83;;;10.90;99.90;;;;;;4989384;28;20026;-70
2023/05/15 00:59:26;;;;;;;30.48;15.82;;;10.90;99.90;;;;;;4994318;28;20061;-71
2023/05/15 01:01:52;;;;;;;30.38;12.68;;;10.80;99.90;;;;;;4993804;28;20022;-70
2023/05/15 01:04:18;;;;;;;25.00;11.80;;;10.80;99.90;;;;;;4994889;28;20318;-70
2023/05/15 01:06:44;;;;;;;25.17;14.40;;;10.80;99.90;;;;;;4994680;28;20097;-70
2023/05/15 01:09:11;;;;;;;29.60;15.37;;;10.70;99.90;;;;;;4985414;28;20027;-70
2023/05/15 01:11:38;;;;;;;26.88;12.95;;;10.60;99.90;;;;;;4994934;28;20029;-70
2023/05/15 01:14:05;;;;;;;;;;;10.60;99.90;;;;;;4995352;28;20107;-69
2023/05/15 01:16:32;;;;;;;25.80;11.68;;;10.60;99.90;;;;;;4994077;28;20323;-79
2023/05/15 01:18:57;;;;;;;;;;;10.50;99.90;;;;;;4995842;28;20038;-70
2023/05/15 01:21:35;;;;;;;34.27;13.90;;;10.40;99.90;;;;;;4993584;28;19913;-70
2023/05/15 01:24:29;;;;;;;30.23;13.90;;;10.20;99.90;;;;;;4993591;28;20315;-69
2023/05/15 01:27:36;;;;;;;28.10;14.23;;;10.20;99.90;;;;;;4984766;28;20109;-70
2023/05/15 01:30:16;;;;;;;33.67;16.52;;;10.10;99.90;;;;;;4991877;28;20062;-69
2023/05/15 01:33:00;;;;;;;43.65;18.33;;;10.00;99.90;;;;;;4989052;28;20030;-70
2023/05/15 01:35:47;;;;;;;37.65;20.75;;;9.90;99.90;;;;;;4982801;28;20026;-70
2023/05/15 01:38:33;;;;;;;47.40;22.42;;;9.90;99.90;;;;;;4993589;28;20058;-70
2023/05/15 01:41:11;;;;;;;47.85;22.33;;;9.90;99.90;;;;;;4991127;28;20311;-78
2023/05/15 01:43:41;;;;;;;43.60;20.13;;;9.90;99.90;;;;;;4985875;28;20621;-70
2023/05/15 01:46:08;;;;;;;48.33;21.67;;;10.00;99.90;;;;;;4991938;28;20030;-70
2023/05/15 01:48:35;;;;;;;46.28;21.10;;;10.00;99.90;;;;;;4988422;28;20030;-70
2023/05/15 01:51:04;;;;;;;46.67;22.30;;;10.00;99.90;;;;;;4994638;28;20023;-70
2023/05/15 01:53:31;;;;;;;40.95;21.00;;;10.00;99.90;;;;;;4994187;28;20038;-70
2023/05/15 01:55:58;;;;;;;40.78;20.73;;;10.00;99.90;;;;;;4986944;28;20430;-70
2023/05/15 01:58:25;;;;;;;49.50;20.55;;;9.90;99.90;;;;;;4992915;28;20038;-71
2023/05/15 02:00:52;;;;;;;48.20;21.73;;;9.90;99.90;;;;;;4987046;28;20045;-70
2023/05/15 02:03:19;;;;;;;56.83;21.90;;;9.80;99.90;;;;;;4993826;28;20476;-70
2023/05/15 02:05:45;;;;;;;;;;;9.90;99.90;;;;;;4995105;28;20033;-71
2023/05/15 02:08:11;;;;;;;;;;;9.90;99.90;;;;;;4993320;28;19965;-70
2023/05/15 02:10:38;;;;;;;38.40;18.27;;;9.90;99.90;;;;;;4982371;28;20305;-69
2023/05/15 02:13:07;;;;;;;40.35;21.10;;;9.90;99.90;;;;;;4992904;28;20507;-70
2023/05/15 02:15:34;;;;;;;43.85;21.50;;;9.90;99.90;;;;;;4991887;28;20054;-70
2023/05/15 02:18:00;;;;;;;43.33;19.90;;;9.90;99.90;;;;;;4986935;28;20042;-70
2023/05/15 02:20:26;;;;;;;44.53;20.90;;;10.00;99.90;;;;;;4988931;28;20341;-70
2023/05/15 02:22:52;;;;;;;50.60;20.60;;;10.00;99.90;;;;;;4992822;28;20077;-80
2023/05/15 02:25:19;;;;;;;44.30;20.77;;;10.00;99.90;;;;;;4993499;28;20077;-70
2023/05/15 02:27:59;;;;;;;48.22;20.85;;;10.00;99.90;;;;;;4993653;28;20317;-70
2023/05/15 02:30:39;;;;;;;43.40;19.15;;;10.10;99.90;;;;;;4994721;28;20027;-70
2023/05/15 02:33:33;;;;;;;48.55;18.42;;;10.10;99.90;;;;;;4993495;28;20039;-70
2023/05/15 02:36:05;;;;;;;42.47;19.00;;;10.10;99.90;;;;;;4989192;28;20026;-70
2023/05/15 02:38:46;;;;;;;40.83;17.95;;;10.10;99.90;;;;;;4982347;28;20039;-70
2023/05/15 02:41:13;;;;;;;41.03;16.55;;;9.90;99.90;;;;;;4989923;28;20440;-70
2023/05/15 02:43:41;;;;;;;40.38;19.05;;;9.90;99.90;;;;;;4991476;28;20026;-70
2023/05/15 02:46:07;;;;;;;35.63;17.20;;;9.80;99.90;;;;;;4993602;28;20426;-69
2023/05/15 02:48:36;;;;;;;32.47;17.42;;;9.80;99.90;;;;;;4993914;28;20038;-72
2023/05/15 02:51:03;;;;;;;41.22;19.52;;;9.80;99.90;;;;;;5000229;28;20034;-69
2023/05/15 02:53:29;;;;;;;41.38;19.52;;;9.80;99.90;;;;;;4997302;28;20101;-69
2023/05/15 02:55:55;;;;;;;41.75;19.88;;;9.80;99.90;;;;;;4996494;28;20384;-71
2023/05/15 02:58:21;;;;;;;36.50;18.40;;;9.90;99.90;;;;;;4996836;28;20429;-70
2023/05/15 03:00:47;;;;;;;41.27;19.23;;;9.90;99.90;;;;;;4997114;28;20034;-70
2023/05/15 03:03:12;;;;;;;40.90;17.90;;;9.80;99.90;;;;;;4994454;28;20101;-70
2023/05/15 03:05:39;;;;;;;36.90;18.37;;;9.70;99.90;;;;;;4996963;28;20109;-70
2023/05/15 03:08:05;;;;;;;47.17;18.75;;;9.70;99.90;;;;;;4988217;28;20019;-69
2023/05/15 03:10:30;;;;;;;29.53;15.80;;;9.70;99.90;;;;;;4983625;28;20053;-69
2023/05/15 03:12:59;;;;;;;35.17;18.40;;;9.70;99.90;;;;;;4995388;28;20034;-69
2023/05/15 03:15:25;;;;;;;41.03;17.63;;;9.80;99.90;;;;;;4994601;28;20429;-70
2023/05/15 03:17:50;;;;;;;37.67;19.40;;;9.80;99.90;;;;;;4989056;28;20528;-69
2023/05/15 03:20:17;;;;;;;36.80;16.53;;;9.90;99.90;;;;;;4981813;28;20054;-69
2023/05/15 03:22:42;;;;;;;47.73;20.90;;;10.00;99.90;;;;;;4990696;28;20109;-79
2023/05/15 03:25:10;;;;;;;31.30;15.83;;;10.00;99.90;;;;;;4996512;28;20360;-69
2023/05/15 03:27:37;;;;;;;44.60;20.10;;;10.10;99.90;;;;;;4994613;28;20493;-69
2023/05/15 03:30:03;;;;;;;;;;;10.00;99.90;;;;;;4997887;28;20065;-69
2023/05/15 03:32:28;;;;;;;42.13;17.92;;;10.00;99.90;;;;;;4995153;28;19949;-70
2023/05/15 03:34:54;;;;;;;36.70;16.70;;;9.90;99.90;;;;;;4992690;28;20034;-69
2023/05/15 03:37:20;;;;;;;40.83;19.73;;;9.90;99.90;;;;;;4994824;28;20084;-69
2023/05/15 03:39:46;;;;;;;45.03;21.13;;;9.90;99.90;;;;;;4995351;28;20038;-69
2023/05/15 03:42:12;;;;;;;48.63;22.17;;;9.90;99.90;;;;;;4996411;28;20026;-69
2023/05/15 03:44:37;;;;;;;48.13;21.87;;;9.90;99.90;;;;;;4996013;28;20030;-69
2023/05/15 03:47:03;;;;;;;29.03;14.77;;;10.10;99.90;;;;;;4996485;28;20038;-69
2023/05/15 03:49:29;;;;;;;75.90;20.37;;;10.10;99.90;;;;;;4982409;28;20082;-69
2023/05/15 03:51:56;;;;;;;28.73;15.63;;;10.00;99.90;;;;;;4996731;28;20097;-69
2023/05/15 03:54:22;;;;;;;33.40;15.45;;;10.00;99.90;;;;;;4981376;28;20042;-69
2023/05/15 03:56:48;;;;;;;38.38;18.20;;;10.00;99.90;;;;;;4993281;28;20031;-79
2023/05/15 03:59:14;;;;;;;28.90;15.60;;;9.90;99.90;;;;;;4995757;28;20322;-69
2023/05/15 04:01:40;;;;;;;31.70;15.67;;;9.90;99.90;;;;;;4992453;28;20035;-69
2023/05/15 04:04:05;;;;;;;34.23;17.37;;;9.80;99.90;;;;;;4988793;28;20026;-68
2023/05/15 04:06:31;;;;;;;37.27;18.30;;;9.80;99.90;;;;;;4996054;28;20037;-69
2023/05/15 04:08:56;;;;;;;42.83;21.60;;;9.80;99.90;;;;;;4993986;28;20080;-69
2023/05/15 04:11:23;;;;;;;44.60;22.33;;;9.80;99.90;;;;;;4994776;28;20109;-69
2023/05/15 04:13:49;;;;;;;35.22;20.08;;;9.80;99.90;;;;;;4993155;28;20311;-69
2023/05/15 04:16:15;;;;;;;40.97;21.17;;;9.80;99.90;;;;;;4996237;28;20026;-68
2023/05/15 04:18:40;;;;;;;39.07;18.90;;;9.80;99.90;;;;;;4991040;28;20038;-78
2023/05/15 04:21:06;;;;;;;38.47;19.67;;;9.80;99.90;;;;;;4995684;28;20165;-68
2023/05/15 04:23:32;;;;;;;36.47;20.13;;;9.70;99.90;;;;;;4995542;28;20110;-80
2023/05/15 04:25:58;;;;;;;32.10;18.40;;;9.70;99.90;;;;;;4994786;28;20022;-69
2023/05/15 04:28:24;;;;;;;36.50;18.70;;;9.70;99.90;;;;;;4995909;28;20023;-69
2023/05/15 04:30:49;;;;;;;34.30;18.67;;;9.70;99.90;;;;;;4993312;28;20034;-69
2023/05/15 04:33:15;;;;;;;39.73;19.03;;;9.70;99.90;;;;;;4997412;28;20029;-69
2023/05/15 04:35:42;;;;;;;34.67;18.23;;;9.80;99.90;;;;;;4990583;28;20085;-69
2023/05/15 04:38:07;;;;;;;36.05;16.23;;;9.80;99.90;;;;;;4992428;28;20022;-70
2023/05/15 04:40:33;;;;;;;32.07;18.03;;;9.90;99.90;;;;;;4996189;28;20049;-74
2023/05/15 04:42:59;;;;;;;33.60;18.03;;;9.90;99.90;;;;;;4993053;28;20030;-70
2023/05/15 04:45:25;;;;;;;31.83;18.77;;;9.90;99.90;;;;;;4993159;28;20098;-70
2023/05/15 04:47:51;;;;;;;39.10;19.92;;;9.90;99.90;;;;;;4989780;28;20034;-69
2023/05/15 04:50:17;;;;;;;38.93;20.87;;;10.00;99.90;;;;;;4995341;28;20029;-70
2023/05/15 04:52:44;;;;;;;39.30;22.07;;;10.00;99.90;;;;;;4992860;28;20030;-78
2023/05/15 04:55:10;;;;;;;39.10;23.42;;;10.20;99.90;;;;;;4995899;28;20447;-69
2023/05/15 04:57:36;;;;;;;42.77;23.30;;;10.20;99.90;;;;;;5012244;28;20034;-70
2023/05/15 05:00:06;;;;;;;45.23;24.60;;;10.30;99.90;;;;;;4992991;28;20064;-70
2023/05/15 05:02:32;;;;;;;40.30;22.98;;;10.30;99.90;;;;;;4994946;28;20026;-76
2023/05/15 05:04:57;;;;;;;38.00;22.63;;;10.40;99.90;;;;;;4992448;28;20299;-73
2023/05/15 05:07:23;;;;;;;34.20;22.47;;;10.50;99.90;;;;;;4993336;28;20480;-71
2023/05/15 05:09:49;;;;;;;33.10;18.73;;;10.40;99.90;;;;;;5007616;28;20106;-68
2023/05/15 05:12:15;;;;;;;35.83;21.33;;;10.30;99.90;;;;;;4994150;28;20441;-69
2023/05/15 05:14:43;;;;;;;32.17;18.67;;;10.30;99.90;;;;;;4996525;28;20049;-69
2023/05/15 05:17:09;;;;;;;31.60;18.27;;;10.30;99.90;;;;;;4999100;28;20444;-69
2023/05/15 05:19:35;;;;;;;35.20;18.23;;;10.30;99.90;;;;;;4998447;28;20026;-69
2023/05/15 05:22:04;;;;;;;35.23;20.90;;;10.30;99.90;;;;;;4988214;28;20078;-70
2023/05/15 05:24:30;;;;;;;41.38;24.83;;;10.40;99.90;;;;;;4984738;28;20048;-70
2023/05/15 05:26:57;;;;;;;;;;;10.50;99.90;;;;;;4998391;28;20118;-70
2023/05/15 05:29:23;;;;;;;38.85;22.60;;;10.60;99.90;;;;;;5000778;28;19905;-69
2023/05/15 05:31:49;;;;;;;43.15;26.50;;;10.70;99.90;;;;;;4996435;28;20030;-70
2023/05/15 05:34:15;;;;;;;38.00;22.77;;;10.90;99.90;;;;;;4992443;28;20373;-70
2023/05/15 05:36:41;;;;;;;43.40;25.37;;;10.90;99.90;;;;;;4985680;28;20137;-70
2023/05/15 05:39:06;;;;;;;42.77;24.03;;;10.90;99.90;;;;;;4996948;28;21795;-70
2023/05/15 05:41:33;;;;;;;37.53;21.87;;;11.00;99.90;;;;;;4990869;28;20030;-79
2023/05/15 05:43:59;;;;;;;41.70;24.38;;;10.80;99.90;;;;;;4998003;28;20432;-79
2023/05/15 05:46:26;;;;;;;44.00;24.70;;;10.90;99.90;;;;;;5001275;28;20057;-70
2023/05/15 05:48:52;;;;;;;42.58;24.20;;;10.90;99.90;;;;;;4995998;28;20414;-70
2023/05/15 05:51:17;;;;;;;41.13;23.27;;;10.90;99.90;;;;;;4999389;28;20037;-71
2023/05/15 05:53:43;;;;;;;43.83;23.43;;;10.90;99.90;;;;;;4997081;28;20334;-70
2023/05/15 05:56:09;;;;;;;35.38;21.00;;;10.90;99.90;;;;;;5012710;28;20061;-70
2023/05/15 05:58:35;;;;;;;43.10;23.47;;;10.80;99.90;;;;;;4990738;28;20034;-77
2023/05/15 06:01:02;;;;;;;38.27;23.13;;;10.90;99.90;;;;;;4993798;28;20723;-76
2023/05/15 06:03:28;;;;;;;39.60;21.50;;;11.00;99.90;;;;;;4988756;28;20034;-70
2023/05/15 06:05:54;;;;;;;35.70;21.73;;;11.10;99.90;;;;;;4994931;28;20050;-70
2023/05/15 06:08:19;;;;;;;41.13;22.93;;;11.00;99.90;;;;;;4993330;28;20050;-70
2023/05/15 06:10:45;;;;;;;42.57;24.57;;;11.00;99.90;;;;;;4981632;28;20022;-69
2023/05/15 06:13:13;;;;;;;43.67;22.90;;;11.00;99.90;;;;;;4992694;28;20049;-69
2023/05/15 06:15:39;;;;;;;38.70;23.88;;;11.00;99.90;;;;;;4989809;28;20468;-69
2023/05/15 06:18:05;;;;;;;38.03;24.35;;;11.20;99.90;;;;;;4991643;28;20038;-69
2023/05/15 06:20:32;;;;;;;39.15;22.15;;;11.10;99.90;;;;;;4993855;28;20349;-69
2023/05/15 06:22:58;;;;;;;38.20;22.33;;;11.00;99.90;;;;;;4989776;28;20026;-69
2023/05/15 06:25:24;;;;;;;39.83;22.80;;;11.10;99.90;;;;;;4995871;28;20026;-70
2023/05/15 06:27:50;;;;;;;39.20;21.37;;;11.20;99.90;;;;;;4996935;28;20081;-70
2023/05/15 06:30:17;;;;;;;42.60;22.30;;;11.20;99.90;;;;;;4999383;28;20417;-69
2023/05/15 06:32:43;;;;;;;42.65;22.90;;;11.20;99.90;;;;;;4990472;28;20069;-69
2023/05/15 06:35:09;;;;;;;45.47;23.33;;;11.30;99.90;;;;;;4988460;28;20061;-70
2023/05/15 06:37:36;;;;;;;34.78;20.73;;;11.40;99.90;;;;;;4996610;28;20073;-75
2023/05/15 06:40:04;;;;;;;36.38;22.35;;;11.40;99.90;;;;;;4998497;28;20433;-70
2023/05/15 06:42:30;;;;;;;38.80;22.27;;;11.40;99.90;;;;;;4995753;28;20303;-77
2023/05/15 06:44:56;;;;;;;39.47;22.47;;;11.30;99.90;;;;;;4998614;28;20021;-70
2023/05/15 06:47:21;;;;;;;35.40;20.77;;;11.40;99.90;;;;;;4996149;28;20034;-69
2023/05/15 06:49:47;;;;;;;39.23;21.37;;;11.40;99.90;;;;;;4995759;28;20264;-69
2023/05/15 06:52:13;;;;;;;37.70;20.63;;;11.40;99.90;;;;;;4998014;28;20113;-69
2023/05/15 06:54:40;;;;;;;42.80;22.57;;;11.50;99.90;;;;;;4997333;28;20097;-69
2023/05/15 06:57:06;;;;;;;38.55;21.23;;;11.50;99.90;;;;;;4993205;28;20346;-69
2023/05/15 06:59:34;;;;;;;38.05;21.00;;;11.60;99.90;;;;;;4996110;28;20109;-76
2023/05/15 07:02:01;;;;;;;43.40;22.40;;;11.80;99.90;;;;;;4994261;28;20034;-70
2023/05/15 07:04:29;;;;;;;35.60;21.23;;;12.00;99.90;;;;;;4994103;28;20101;-69
2023/05/15 07:06:54;;;;;;;36.88;21.75;;;11.90;99.90;;;;;;4996301;28;20037;-69
2023/05/15 07:09:20;;;;;;;40.13;22.90;;;12.10;99.90;;;;;;4992003;28;20105;-70
2023/05/15 07:11:46;;;;;;;35.80;20.97;;;12.10;99.90;;;;;;4995355;28;20384;-69
2023/05/15 07:14:12;;;;;;;34.30;21.33;;;12.10;99.90;;;;;;4996260;28;20129;-69
2023/05/15 07:16:38;;;;;;;35.30;21.67;;;12.20;99.90;;;;;;4999268;28;20023;-76
2023/05/15 07:19:04;;;;;;;39.07;22.97;;;12.20;99.90;;;;;;4992979;28;20081;-69
2023/05/15 07:21:30;;;;;;;40.07;22.63;;;12.30;99.90;;;;;;4994827;28;20030;-69
2023/05/15 07:23:56;;;;;;;46.17;23.40;;;12.50;99.90;;;;;;4997610;28;20026;-69
2023/05/15 07:26:21;;;;;;;43.07;23.50;;;12.70;99.90;;;;;;4996855;28;20026;-70
2023/05/15 07:28:47;;;;;;;37.30;21.97;;;12.70;99.90;;;;;;4993334;28;20038;-70
2023/05/15 07:31:13;;;;;;;38.73;22.67;;;12.60;99.90;;;;;;4993223;28;20030;-70
2023/05/15 07:33:39;;;;;;;37.80;21.00;;;12.60;99.90;;;;;;4996755;28;20027;-70
2023/05/15 07:36:05;;;;;;;35.05;20.15;;;12.70;99.90;;;;;;4991812;28;20052;-69
2023/05/15 07:38:31;;;;;;;43.67;21.23;;;12.80;99.90;;;;;;4999953;28;20492;-70
2023/05/15 07:40:57;;;;;;;35.30;21.93;;;12.70;99.90;;;;;;4992105;28;20264;-70
2023/05/15 07:43:23;;;;;;;34.73;20.53;;;12.70;99.90;;;;;;4991696;28;20103;-77
2023/05/15 07:45:49;;;;;;;34.97;20.73;;;12.70;99.90;;;;;;4994502;28;20117;-70
2023/05/15 07:48:16;;;;;;;43.73;21.33;;;12.80;99.90;;;;;;4994031;28;20027;-70
2023/05/15 07:50:43;;;;;;;35.80;20.15;;;12.80;99.90;;;;;;4993255;28;20023;-70
2023/05/15 07:53:10;;;;;;;35.40;19.73;;;12.80;99.90;;;;;;5003011;28;20372;-69
2023/05/15 07:55:35;;;;;;;37.33;20.90;;;12.90;99.90;;;;;;4992175;28;20029;-70
2023/05/15 07:58:02;;;;;;;36.40;18.87;;;12.90;99.90;;;;;;4992137;28;20177;-70
2023/05/15 08:00:27;;;;;;;31.13;19.33;;;13.00;99.90;;;;;;4989614;28;20057;-75
2023/05/15 08:02:53;;;;;;;31.90;18.30;;;13.00;99.90;;;;;;4990826;28;20085;-69
2023/05/15 08:05:19;;;;;;;43.27;19.87;;;13.10;99.90;;;;;;4991747;28;20081;-70
2023/05/15 08:07:45;;;;;;;41.07;22.53;;;13.20;99.90;;;;;;4988737;28;20015;-69
2023/05/15 08:10:11;;;;;;;41.90;21.27;;;13.40;99.90;;;;;;4997856;28;20030;-70
2023/05/15 08:12:37;;;;;;;40.23;21.93;;;13.40;99.90;;;;;;4997905;28;20089;-70
2023/05/15 08:15:03;;;;;;;38.13;21.97;;;13.30;99.90;;;;;;4986226;28;20047;-70
2023/05/15 08:17:28;;;;;;;41.80;22.93;;;13.20;99.90;;;;;;4992884;28;20045;-75
2023/05/15 08:19:55;;;;;;;38.33;21.73;;;13.10;99.90;;;;;;4991079;28;20373;-70
2023/05/15 08:22:21;;;;;;;45.58;23.08;;;13.10;99.90;;;;;;4995391;28;20422;-75
2023/05/15 08:24:47;;;;;;;44.07;23.20;;;13.10;99.90;;;;;;4991809;28;20026;-70
2023/05/15 08:27:13;;;;;;;45.80;22.40;;;13.00;99.90;;;;;;4996573;28;20046;-76
2023/05/15 08:29:39;;;;;;;39.97;23.27;;;12.90;99.90;;;;;;4995384;28;20034;-70
2023/05/15 08:32:06;;;;;;;40.80;22.60;;;12.90;99.90;;;;;;4994637;28;20030;-70
2023/05/15 08:34:33;;;;;;;46.33;22.92;;;13.00;99.90;;;;;;4995546;28;20030;-74
2023/05/15 08:36:59;;;;;;;49.90;23.55;;;13.00;99.90;;;;;;4995783;28;20022;-70
2023/05/15 08:39:25;;;;;;;37.13;21.90;;;13.00;99.90;;;;;;4998688;28;20413;-69
2023/05/15 08:42:01;;;;;;;38.63;21.50;;;13.00;99.90;;;;;;4997692;28;20386;-69
2023/05/15 08:44:27;;;;;;;37.95;21.65;;;13.10;99.90;;;;;;4995354;28;20033;-69
2023/05/15 08:46:53;;;;;;;38.47;22.00;;;13.00;99.90;;;;;;4995541;28;20031;-69
2023/05/15 08:49:39;;;;;;;39.97;21.53;;;12.90;99.90;;;;;;4996436;28;20022;-69
2023/05/15 08:52:05;;;;;;;45.22;24.17;;;12.80;99.90;;;;;;5001289;28;20325;-70
2023/05/15 08:54:32;;;;;;;50.50;24.88;;;12.80;99.90;;;;;;4996581;28;20030;-69
2023/05/15 08:56:59;;;;;;;59.97;29.67;;;12.90;99.90;;;;;;4999311;28;20069;-75
2023/05/15 08:59:25;;;;;;;60.78;31.35;;;12.80;99.90;;;;;;5004114;28;20108;-69
2023/05/15 09:01:52;;;;;;;68.72;32.53;;;12.70;99.90;;;;;;4993975;28;20041;-69
2023/05/15 09:04:18;;;;;;;;;;;12.70;99.90;;;;;;5003585;28;20050;-70
2023/05/15 09:06:46;;;;;;;75.17;32.70;;;12.80;99.90;;;;;;4991507;28;19953;-72
2023/05/15 09:09:12;;;;;;;67.45;32.65;;;12.70;99.90;;;;;;5002167;28;20267;-70
2023/05/15 09:11:48;;;;;;;75.20;34.42;;;12.70;99.90;;;;;;4995612;28;20044;-70
2023/05/15 09:14:14;;;;;;;70.95;34.15;;;12.70;99.90;;;;;;5000335;28;20049;-70
2023/05/15 09:16:39;;;;;;;82.50;35.67;;;12.80;99.90;;;;;;4989029;28;20041;-70
2023/05/15 09:19:06;;;;;;;76.97;37.53;;;12.70;99.90;;;;;;5006244;28;20294;-69
2023/05/15 09:21:32;;;;;;;71.28;33.60;;;12.80;99.90;;;;;;4993630;28;20129;-76
2023/05/15 09:24:24;;;;;;;79.07;36.15;;;12.80;99.90;;;;;;4989302;28;20088;-69
2023/05/15 09:27:08;;;;;;;76.47;34.72;;;12.90;99.90;;;;;;4985222;28;20029;-70
2023/05/15 09:29:36;;;;;;;74.82;36.88;;;12.90;99.90;;;;;;4989691;28;20133;-69
2023/05/15 09:32:07;;;;;;;71.35;34.63;;;12.90;99.90;;;;;;4994874;28;20023;-70
2023/05/15 09:34:35;;;;;;;75.80;38.10;;;13.00;99.90;;;;;;4990530;28;20026;-77
2023/05/15 09:37:04;;;;;;;72.78;34.00;;;13.20;99.90;;;;;;4990964;28;20322;-69
2023/05/15 09:39:30;;;;;;;69.28;33.88;;;13.30;99.90;;;;;;4998097;28;20029;-70
2023/05/15 09:42:14;;;;;;;74.07;34.57;;;13.20;99.90;;;;;;5008303;28;20325;-70
2023/05/15 09:44:45;;;;;;;70.55;32.53;;;13.20;99.90;;;;;;5005842;28;20022;-68
2023/05/15 09:47:16;;;;;;;76.40;35.50;;;13.30;99.90;;;;;;4996140;28;20065;-74
2023/05/15 09:49:45;;;;;;;71.13;34.17;;;13.30;99.90;;;;;;4992534;28;20034;-70
2023/05/15 09:52:11;;;;;;;74.55;34.72;;;13.30;99.90;;;;;;5000402;28;20038;-69
2023/05/15 09:54:37;;;;;;;74.07;35.23;;;13.20;99.90;;;;;;4999649;28;20042;-70
2023/05/15 09:57:11;;;;;;;67.68;34.03;;;13.30;99.90;;;;;;5000730;28;20349;-70
2023/05/15 09:59:47;;;;;;;67.53;32.25;;;13.30;99.90;;;;;;5012115;28;20327;-68
2023/05/15 10:02:30;;;;;;;68.50;32.55;;;13.40;99.90;;;;;;5000024;28;20034;-76
2023/05/15 10:04:57;;;;;;;62.65;30.23;;;13.60;99.90;;;;;;5007465;28;20026;-70
2023/05/15 10:07:41;;;;;;;60.20;30.10;;;13.60;99.90;;;;;;5004533;28;20022;-69
2023/05/15 10:10:07;;;;;;;57.70;27.92;;;13.70;99.90;;;;;;4996144;28;20682;-70
2023/05/15 10:12:35;;;;;;;57.08;27.95;;;13.80;99.90;;;;;;5001212;28;20046;-69
2023/05/15 10:15:02;;;;;;;54.25;26.67;;;13.80;99.90;;;;;;4997336;28;20050;-78
2023/05/15 10:17:30;;;;;;;50.05;26.08;;;13.90;99.90;;;;;;5001849;28;20034;-78
2023/05/15 10:19:59;;;;;;;47.50;25.17;;;13.90;99.90;;;;;;4990269;28;20034;-68
2023/05/15 10:22:29;;;;;;;35.92;20.75;;;13.90;99.90;;;;;;4987094;28;20508;-68
2023/05/15 10:25:38;;;;;;;35.72;20.63;;;13.90;99.90;;;;;;4996177;28;20030;-69
2023/05/15 10:28:09;;;;;;;34.97;20.35;;;13.90;99.90;;;;;;5003682;28;20044;-68
2023/05/15 10:30:36;;;;;;;35.13;19.58;;;13.90;99.90;;;;;;4992581;28;20102;-69
2023/05/15 10:33:06;;;;;;;40.28;21.17;;;13.90;99.90;;;;;;4990815;28;20027;-69
2023/05/15 10:35:33;;;;;;;38.38;20.00;;;13.90;99.90;;;;;;5008270;28;20030;-75
2023/05/15 10:38:02;;;;;;;39.58;19.95;;;14.00;99.90;;;;;;4990262;28;20500;-68
2023/05/15 10:40:29;;;;;;;38.42;19.77;;;14.10;99.90;;;;;;4996744;28;20023;-70
2023/05/15 10:42:58;;;;;;;31.83;17.98;;;14.20;99.90;;;;;;4990710;28;20062;-70
2023/05/15 10:45:25;;;;;;;27.80;17.10;;;14.20;99.90;;;;;;4997051;28;20026;-70
2023/05/15 10:47:51;;;;;;;;;;;14.20;99.90;;;;;;4995651;28;20037;-70
2023/05/15 10:50:18;;;;;;;27.98;16.80;;;13.90;99.90;;;;;;4992420;28;19910;-78
2023/05/15 10:52:44;;;;;;;33.15;19.42;;;14.10;99.90;;;;;;4998090;28;20041;-69
2023/05/15 10:55:16;;;;;;;28.45;17.45;;;14.10;99.90;;;;;;4992438;28;20072;-70
2023/05/15 10:57:46;;;;;;;29.65;17.23;;;14.20;99.90;;;;;;4997886;28;20448;-71
2023/05/15 11:00:26;;;;;;;34.92;18.27;;;14.10;99.90;;;;;;4991264;28;20335;-71
2023/05/15 11:02:55;;;;;;;31.65;19.27;;;14.10;99.90;;;;;;4992172;28;20692;-69
2023/05/15 11:05:21;;;;;;;37.47;18.98;;;14.20;99.90;;;;;;4989450;28;20018;-79
2023/05/15 11:08:17;;;;;;;31.92;17.70;;;14.20;99.90;;;;;;4991044;28;20697;-69
2023/05/15 11:10:43;;;;;;;34.17;20.10;;;14.10;99.90;;;;;;4994116;28;20022;-79
2023/05/15 11:13:10;;;;;;;30.38;19.27;;;14.20;99.90;;;;;;5002353;28;20034;-69
2023/05/15 11:15:45;;;;;;;26.08;15.80;;;14.30;99.90;;;;;;5002580;28;20073;-69
2023/05/15 11:18:12;;;;;;;26.55;15.63;;;14.40;99.90;;;;;;4993321;28;20419;-69
2023/05/15 11:20:48;;;;;;;22.85;15.00;;;14.50;99.90;;;;;;4990663;28;20508;-69
2023/05/15 11:23:14;;;;;;;25.60;15.63;;;14.70;99.90;;;;;;4991792;28;20035;-69
2023/05/15 11:25:41;;;;;;;25.83;15.80;;;14.60;99.90;;;;;;4995401;28;20122;-71
2023/05/15 11:28:21;;;;;;;25.50;15.07;;;14.60;99.90;;;;;;4995527;28;20036;-69
2023/05/15 11:30:51;;;;;;;25.63;16.17;;;14.60;99.90;;;;;;4995826;28;20037;-69
2023/05/15 11:33:18;;;;;;;25.05;15.70;;;14.70;99.90;;;;;;4993633;28;20030;-69
2023/05/15 11:35:46;;;;;;;29.40;16.25;;;14.70;99.90;;;;;;4993171;28;20154;-69
2023/05/15 11:38:25;;;;;;;28.17;16.08;;;14.80;99.90;;;;;;4991191;28;20029;-70
2023/05/15 11:40:54;;;;;;;27.55;17.25;;;14.70;99.90;;;;;;4989901;28;20434;-70
2023/05/15 11:43:21;;;;;;;33.20;19.13;;;14.60;99.90;;;;;;4995595;28;20065;-69
2023/05/15 11:46:02;;;;;;;37.40;19.65;;;14.70;99.90;;;;;;4991998;28;20085;-70
2023/05/15 11:48:33;;;;;;;40.17;21.60;;;14.70;99.90;;;;;;5010106;28;20118;-71
2023/05/15 11:51:04;;;;;;;32.17;20.33;;;14.80;99.90;;;;;;5004730;28;20026;-70
2023/05/15 11:53:32;;;;;;;35.08;20.90;;;14.70;99.90;;;;;;4990823;28;20030;-70
2023/05/15 11:55:58;;;;;;;35.08;20.73;;;14.70;99.90;;;;;;4993365;28;20088;-70
2023/05/15 11:58:25;;;;;;;30.65;19.45;;;14.70;99.90;;;;;;4990499;28;20034;-70
2023/05/15 12:00:52;;;;;;;;;;;14.70;99.90;;;;;;4994019;28;20038;-77
2023/05/15 12:03:32;;;;;;;30.20;18.33;;;14.70;99.90;;;;;;4997339;28;19921;-70
2023/05/15 12:06:01;;;;;;;33.63;18.95;;;14.90;99.90;;;;;;4988145;28;20050;-70
2023/05/15 12:08:32;;;;;;;27.10;14.40;;;14.90;99.90;;;;;;4990679;28;20031;-70
2023/05/15 12:10:59;;;;;;;17.08;9.32;;;14.80;99.90;;;;;;5005895;28;20026;-70
2023/05/15 12:13:25;;;;;;;13.55;9.02;;;15.00;99.90;;;;;;4991803;28;20042;-68
2023/05/15 12:15:53;;;;;;;13.07;8.10;;;15.00;99.90;;;;;;4995550;28;20066;-80
2023/05/15 12:18:19;;;;;;;14.50;8.00;;;14.80;99.90;;;;;;4993393;28;20038;-70
2023/05/15 12:20:45;;;;;;;17.37;6.57;;;15.00;99.90;;;;;;5003384;28;20034;-70
2023/05/15 12:23:15;;;;;;;13.13;6.70;;;15.00;99.90;;;;;;4990553;28;20724;-70
2023/05/15 12:25:42;;;;;;;13.23;5.68;;;15.30;99.90;;;;;;4992516;28;20125;-70
2023/05/15 12:28:08;;;;;;;8.18;5.55;;;15.60;99.90;;;;;;4994200;28;20053;-70
2023/05/15 12:30:35;;;;;;;12.23;6.70;;;15.30;99.90;;;;;;4995923;28;20022;-70
2023/05/15 12:33:03;;;;;;;12.98;7.22;;;15.20;99.90;;;;;;5000326;28;20386;-69
2023/05/15 12:35:33;;;;;;;13.93;8.18;;;15.30;99.90;;;;;;4997006;28;20030;-70
2023/05/15 12:38:03;;;;;;;13.52;8.05;;;15.10;99.90;;;;;;4995678;28;20400;-69